Time;durP1;ratioP1;P1;durP2;ratioP2;P2;SDS_P1;SDS_P2;PMS_P1;PMS_P2;Temp;Humidity;BMP_temperature;BMP_pressure;BME280_temperature;BME280_humidity;BME280_pressure;Samples;Min_cycle;Max_cycle;Signal;HPM_P1;HPM_P2
2023/12/12 00:08:28;;;;;;;1.17;0.43;;;;;;;17.32;56.07;100358.47;20838202;28;20064;-59
2023/12/12 00:18:33;;;;;;;0.93;0.40;;;;;;;17.33;56.00;100351.28;20845772;28;20512;-60
2023/12/12 00:28:34;;;;;;;0.88;0.60;;;;;;;17.34;55.70;100355.66;20856714;28;20068;-60
2023/12/12 00:38:37;;;;;;;1.00;0.47;;;;;;;17.34;55.60;100342.22;20846249;28;20056;-59
2023/12/12 00:48:39;;;;;;;0.38;0.30;;;;;;;17.34;55.48;100340.34;20846460;28;20049;-60
2023/12/12 00:58:41;;;;;;;0.68;0.50;;;;;;;17.35;55.31;100347.44;20814208;28;20111;-59
2023/12/12 01:08:42;;;;;;;0.70;0.55;;;;;;;17.35;55.06;100357.34;20843461;28;20052;-59
2023/12/12 01:18:44;;;;;;;1.33;0.50;;;;;;;17.32;55.03;100346.88;20839188;28;20103;-60
2023/12/12 01:28:47;;;;;;;0.43;0.40;;;;;;;17.36;54.83;100364.44;20856300;28;20053;-60
2023/12/12 01:38:48;;;;;;;1.08;0.40;;;;;;;17.38;54.49;100365.13;20866843;28;20099;-60
2023/12/12 01:48:50;;;;;;;1.40;0.60;;;;;;;17.41;54.20;100356.75;20841704;28;20053;-60
2023/12/12 01:58:53;;;;;;;0.50;0.40;;;;;;;17.44;54.09;100361.84;20822301;28;20049;-60
2023/12/12 02:08:54;;;;;;;1.23;0.40;;;;;;;17.44;53.83;100343.00;20822054;28;20057;-60
2023/12/12 02:18:56;;;;;;;0.70;0.38;;;;;;;17.47;53.52;100355.34;20817171;28;20064;-60
2023/12/12 02:28:58;;;;;;;0.95;0.40;;;;;;;17.42;53.84;100357.59;20853085;28;20055;-60
2023/12/12 02:39:00;;;;;;;0.95;0.55;;;;;;;17.43;53.46;100356.59;20853188;28;20056;-64
2023/12/12 02:49:02;;;;;;;0.98;0.40;;;;;;;17.46;53.29;100354.47;20811914;28;20085;-59
2023/12/12 02:59:04;;;;;;;1.35;0.40;;;;;;;17.48;53.12;100352.50;20814172;28;20041;-59
2023/12/12 03:09:06;;;;;;;0.60;0.40;;;;;;;17.46;53.12;100342.88;20839729;28;20492;-59
2023/12/12 03:19:09;;;;;;;0.70;0.50;;;;;;;17.29;53.22;100320.28;20827753;28;20053;-60
2023/12/12 03:29:11;;;;;;;1.60;0.60;;;;;;;17.49;53.00;100340.72;20847908;28;20040;-60
2023/12/12 03:39:14;;;;;;;1.50;0.75;;;;;;;17.51;52.65;100333.34;20838548;28;20053;-60
2023/12/12 03:49:16;;;;;;;0.88;0.60;;;;;;;17.53;52.83;100317.06;20823930;28;20045;-60
2023/12/12 03:59:18;;;;;;;0.85;0.50;;;;;;;17.53;52.63;100315.22;20789049;28;20053;-59
2023/12/12 04:09:20;;;;;;;1.80;0.82;;;;;;;17.51;52.62;100314.50;20827563;28;20052;-59
2023/12/12 04:19:22;;;;;;;0.63;0.57;;;;;;;17.48;52.69;100309.44;20834456;28;20056;-59
2023/12/12 04:29:24;;;;;;;0.80;0.68;;;;;;;17.46;52.86;100334.81;20833453;28;20053;-59
2023/12/12 04:39:27;;;;;;;1.30;0.65;;;;;;;17.43;52.78;100327.88;20831022;28;20123;-59
2023/12/12 04:49:28;;;;;;;1.00;0.70;;;;;;;17.40;52.98;100312.84;20822787;28;20111;-59
2023/12/12 04:59:30;;;;;;;0.82;0.77;;;;;;;17.41;52.76;100321.78;20826043;28;20045;-60
2023/12/12 05:09:32;;;;;;;0.45;0.45;;;;;;;17.43;52.69;100300.97;20832247;28;20053;-60
2023/12/12 05:19:34;;;;;;;0.77;0.40;;;;;;;17.45;52.51;100292.72;20816907;28;20053;-59
2023/12/12 05:29:36;;;;;;;0.98;0.43;;;;;;;17.45;52.24;100293.59;20830864;28;20060;-60
2023/12/12 05:39:37;;;;;;;0.60;0.40;;;;;;;17.45;52.13;100292.72;20805667;28;20144;-60
2023/12/12 05:49:39;;;;;;;1.20;0.50;;;;;;;17.47;51.94;100286.22;20806977;28;20053;-60
2023/12/12 05:59:43;;;;;;;0.50;0.50;;;;;;;17.45;52.10;100287.34;20841464;28;20053;-59
2023/12/12 06:09:45;;;;;;;0.60;0.50;;;;;;;17.48;51.93;100297.84;20823015;28;20359;-60
2023/12/12 06:19:46;;;;;;;0.60;0.60;;;;;;;17.51;52.12;100295.69;20842965;28;20136;-60
2023/12/12 06:29:49;;;;;;;0.68;0.60;;;;;;;17.58;52.90;100292.38;20833537;28;20045;-59
2023/12/12 06:39:52;;;;;;;0.70;0.70;;;;;;;17.63;53.23;100279.31;20831444;28;20048;-59
2023/12/12 06:49:54;;;;;;;1.02;0.88;;;;;;;17.63;53.54;100273.94;20849378;28;20410;-60
2023/12/12 06:59:56;;;;;;;1.70;0.63;;;;;;;17.71;54.26;100274.06;20830431;28;20486;-60
2023/12/12 07:09:58;;;;;;;1.17;0.90;;;;;;;17.67;55.54;100275.34;20811604;28;20049;-60
2023/12/12 07:20:01;;;;;;;1.05;0.90;;;;;;;17.63;56.31;100279.31;20859811;28;20049;-59
2023/12/12 07:30:03;;;;;;;0.80;0.80;;;;;;;17.71;55.66;100286.66;20814141;28;20049;-60
2023/12/12 07:40:06;;;;;;;0.73;0.73;;;;;;;17.69;55.51;100273.38;20842053;28;20056;-60
2023/12/12 07:50:08;;;;;;;1.98;0.80;;;;;;;17.63;55.84;100277.50;20837725;28;20136;-60
2023/12/12 08:00:11;;;;;;;2.42;0.70;;;;;;;17.60;55.69;100258.94;20808863;28;20080;-60
2023/12/12 08:10:13;;;;;;;0.63;0.63;;;;;;;17.60;55.69;100258.94;20815415;28;20079;-60
2023/12/12 08:20:15;;;;;;;0.70;0.70;;;;;;;17.60;55.64;100258.94;20822864;28;20067;-60
2023/12/12 08:30:17;;;;;;;0.82;0.82;;;;;;;17.61;55.69;100263.34;20849166;28;20048;-60
2023/12/12 08:40:19;;;;;;;1.05;0.90;;;;;;;17.60;55.53;100266.16;20832037;28;20141;-61
2023/12/12 08:50:22;;;;;;;1.98;1.27;;;;;;;17.62;55.32;100253.41;20844153;28;20049;-60
2023/12/12 09:00:24;;;;;;;1.13;1.00;;;;;;;17.64;55.21;100254.09;20800545;28;20452;-61
2023/12/12 09:10:25;;;;;;;1.27;0.95;;;;;;;17.65;55.09;100247.72;20870566;28;20053;-64
2023/12/12 09:20:27;;;;;;;1.23;1.00;;;;;;;17.65;55.22;100243.19;20854845;28;20080;-59
2023/12/12 09:30:29;;;;;;;2.55;1.10;;;;;;;17.65;54.93;100223.50;20865237;28;20391;-60
2023/12/12 09:40:34;;;;;;;1.20;1.10;;;;;;;17.63;55.19;100212.91;20851426;28;20083;-65
2023/12/12 09:50:36;;;;;;;2.50;1.10;;;;;;;17.75;55.60;100202.75;20800112;28;20136;-64
2023/12/12 10:00:38;;;;;;;1.30;0.82;;;;;;;17.96;55.08;100180.06;20808155;28;20103;-63
2023/12/12 10:10:41;;;;;;;1.15;0.90;;;;;;;18.09;54.48;100167.06;20807009;28;20057;-64
2023/12/12 10:20:43;;;;;;;1.10;1.00;;;;;;;18.25;54.08;100158.28;20826314;28;20460;-63
2023/12/12 10:30:51;;;;;;;1.50;1.23;;;;;;;18.33;53.86;100137.78;20787133;28;20053;-65
2023/12/12 10:40:53;;;;;;;2.53;1.10;;;;;;;18.35;53.52;100122.31;20821698;28;20055;-63
2023/12/12 10:50:59;;;;;;;1.35;1.20;;;;;;;18.35;53.41;100114.25;20821955;28;20049;-63
2023/12/12 11:01:02;;;;;;;1.50;1.40;;;;;;;18.34;53.52;100109.81;20812076;28;20045;-64
2023/12/12 11:11:09;;;;;;;1.75;1.40;;;;;;;18.38;53.12;100084.28;20809843;28;20045;-63
2023/12/12 11:21:44;;;;;;;1.27;1.17;;;;;;;18.48;53.02;100062.59;20799497;28;20049;-63
2023/12/12 11:31:58;;;;;;;1.83;1.70;;;;;;;18.46;53.03;100049.28;20810530;28;20060;-63
2023/12/12 11:42:05;;;;;;;2.42;1.80;;;;;;;18.48;52.84;100035.63;20823926;28;20417;-63
2023/12/12 11:52:07;;;;;;;1.90;1.58;;;;;;;18.48;52.92;100019.47;20833972;28;20053;-63
2023/12/12 12:02:09;;;;;;;2.47;1.90;;;;;;;18.46;53.07;100000.78;20816797;28;20485;-63
2023/12/12 12:12:11;;;;;;;1.52;1.42;;;;;;;18.41;53.09;99986.94;20824785;28;20077;-63
2023/12/12 12:22:13;;;;;;;2.38;1.85;;;;;;;18.46;53.01;99978.34;20793347;28;20459;-63
2023/12/12 12:32:15;;;;;;;2.58;1.85;;;;;;;18.45;53.34;99947.03;20793752;28;20072;-64
2023/12/12 12:42:17;;;;;;;2.47;1.83;;;;;;;18.44;53.15;99943.50;20814336;28;20417;-64
2023/12/12 12:52:19;;;;;;;2.80;2.22;;;;;;;18.46;53.29;99927.16;20801776;28;20049;-63
2023/12/12 13:02:21;;;;;;;3.50;2.35;;;;;;;18.49;53.70;99908.81;20803951;28;20047;-64
2023/12/12 13:12:23;;;;;;;3.55;2.72;;;;;;;18.55;53.83;99883.03;20823677;28;20049;-63
2023/12/12 13:22:26;;;;;;;3.83;3.00;;;;;;;18.64;54.05;99873.97;20790525;28;20049;-65
2023/12/12 13:32:28;;;;;;;6.13;3.90;;;;;;;18.71;54.23;99852.56;20841752;28;20483;-64
2023/12/12 13:42:30;;;;;;;5.18;4.18;;;;;;;18.78;54.75;99840.13;20832866;28;20060;-62
2023/12/12 13:52:32;;;;;;;6.38;4.35;;;;;;;18.80;54.51;99815.66;20802364;28;20049;-64
2023/12/12 14:02:34;;;;;;;6.10;4.43;;;;;;;18.80;54.72;99813.84;20828641;28;20179;-64
2023/12/12 14:12:36;;;;;;;5.93;4.45;;;;;;;18.77;55.07;99792.56;20815379;28;20052;-63
2023/12/12 14:22:38;;;;;;;6.63;4.85;;;;;;;18.80;55.45;99791.41;20812965;28;20045;-63
2023/12/12 14:32:41;;;;;;;8.10;5.55;;;;;;;18.72;55.38;99759.88;20805630;28;20142;-63
2023/12/12 14:42:44;;;;;;;6.93;5.47;;;;;;;18.82;55.63;99757.03;20827784;28;20441;-64
2023/12/12 14:52:46;;;;;;;9.15;6.15;;;;;;;18.86;55.71;99728.69;20809161;28;20740;-65
2023/12/12 15:02:48;;;;;;;9.48;5.82;;;;;;;18.94;56.13;99715.19;20794704;28;20048;-65
2023/12/12 15:12:50;;;;;;;9.40;6.30;;;;;;;18.72;57.38;99702.44;20850581;28;20535;-59
2023/12/12 15:22:52;;;;;;;9.65;5.60;;;;;;;18.52;58.00;99703.66;20825709;28;20053;-59
2023/12/12 15:32:53;;;;;;;11.55;5.88;;;;;;;18.38;64.27;99696.25;20810726;28;20433;-62
2023/12/12 15:42:55;;;;;;;10.43;6.55;;;;;;;18.43;65.14;99693.88;20820524;28;20142;-62
2023/12/12 15:52:57;;;;;;;9.45;6.32;;;;;;;18.47;66.63;99672.81;20800896;28;20064;-58
2023/12/12 16:02:59;;;;;;;13.02;7.63;;;;;;;18.64;68.71;99642.16;20818122;28;20126;-60
2023/12/12 16:13:01;;;;;;;10.00;6.03;;;;;;;18.84;70.59;99623.72;20839836;28;20538;-59
2023/12/12 16:23:04;;;;;;;10.13;5.93;;;;;;;18.78;71.53;99600.16;20822628;28;20041;-59
2023/12/12 16:33:06;;;;;;;8.48;5.57;;;;;;;18.75;70.79;99583.47;20797285;28;20786;-61
2023/12/12 16:43:08;;;;;;;9.77;5.30;;;;;;;18.76;69.74;99571.69;20826210;28;20578;-61
2023/12/12 16:53:12;;;;;;;9.00;4.75;;;;;;;18.79;69.12;99557.84;20833315;28;20501;-61
2023/12/12 17:03:16;;;;;;;6.67;3.70;;;;;;;18.75;68.40;99557.34;20808381;28;20137;-60
2023/12/12 17:13:18;;;;;;;10.88;5.05;;;;;;;18.40;69.94;99530.69;20843044;28;20048;-60
2023/12/12 17:23:19;;;;;;;8.63;4.43;;;;;;;18.21;71.13;99525.72;20834169;28;20472;-61
2023/12/12 17:33:21;;;;;;;6.85;3.83;;;;;;;18.13;70.68;99552.66;20824205;28;20661;-60
2023/12/12 17:43:23;;;;;;;5.38;3.10;;;;;;;18.15;69.55;99515.63;20835257;28;20512;-60
2023/12/12 17:53:25;;;;;;;4.80;2.83;;;;;;;18.14;68.71;99517.47;20861744;28;20500;-60
2023/12/12 18:03:28;;;;;;;5.90;3.05;;;;;;;18.08;68.01;99505.50;20834486;28;20099;-60
2023/12/12 18:13:30;;;;;;;5.22;2.70;;;;;;;17.99;67.55;99487.66;20846137;28;20052;-59
2023/12/12 18:23:32;;;;;;;3.13;2.33;;;;;;;17.94;66.91;99463.97;20858757;28;20471;-60
2023/12/12 18:33:34;;;;;;;3.85;2.70;;;;;;;17.86;66.48;99465.81;20865118;28;20408;-60
2023/12/12 18:43:36;;;;;;;5.90;3.05;;;;;;;17.67;66.11;99428.34;20859892;28;20499;-60
2023/12/12 18:53:38;;;;;;;3.35;1.83;;;;;;;17.76;65.89;99450.69;20870251;28;20576;-60
2023/12/12 19:03:40;;;;;;;3.88;2.20;;;;;;;17.77;65.49;99436.22;20821624;28;20053;-59
2023/12/12 19:13:42;;;;;;;3.92;2.00;;;;;;;17.75;65.28;99419.41;20850497;28;20059;-60
2023/12/12 19:23:45;;;;;;;3.28;2.22;;;;;;;17.71;64.93;99407.31;20834680;28;20132;-60
2023/12/12 19:33:47;;;;;;;2.88;1.70;;;;;;;17.67;64.75;99396.03;20822614;28;20394;-60
2023/12/12 19:43:48;;;;;;;2.72;1.73;;;;;;;17.71;64.36;99396.56;20827545;28;20072;-60
2023/12/12 19:53:50;;;;;;;2.80;1.85;;;;;;;17.71;64.21;99377.72;20836345;28;20053;-60
2023/12/12 20:03:52;;;;;;;3.38;1.88;;;;;;;17.71;64.10;99371.47;20852401;28;20106;-60
2023/12/12 20:13:54;;;;;;;2.40;1.85;;;;;;;17.69;63.77;99358.22;20823999;28;20044;-61
2023/12/12 20:23:56;;;;;;;2.08;1.27;;;;;;;17.66;63.75;99370.13;20855836;28;20060;-62
2023/12/12 20:33:58;;;;;;;2.85;1.45;;;;;;;17.68;63.59;99365.41;20835852;28;20676;-60
2023/12/12 20:44:00;;;;;;;3.83;1.50;;;;;;;17.65;63.44;99363.09;20806468;28;20059;-60
2023/12/12 20:54:01;;;;;;;1.33;1.00;;;;;;;17.66;63.57;99361.22;20797007;28;20048;-60
2023/12/12 21:04:03;;;;;;;2.22;1.58;;;;;;;17.71;63.25;99349.94;20817164;28;20060;-60
2023/12/12 21:14:06;;;;;;;3.90;1.70;;;;;;;17.50;63.40;99319.88;20803343;28;20087;-60
2023/12/12 21:24:08;;;;;;;2.47;1.70;;;;;;;17.56;63.51;99336.34;20857393;28;20061;-60
2023/12/12 21:34:11;;;;;;;4.07;1.83;;;;;;;17.51;63.69;99332.34;20847855;28;20060;-60
2023/12/12 21:44:14;;;;;;;2.03;1.60;;;;;;;17.49;63.94;99314.69;20809103;28;20120;-60
2023/12/12 21:54:16;;;;;;;2.90;1.90;;;;;;;17.53;63.61;99314.16;20848249;28;20664;-60
2023/12/12 22:04:19;;;;;;;2.45;1.63;;;;;;;17.54;63.63;99299.69;20845207;28;20049;-60
2023/12/12 22:14:21;;;;;;;2.13;1.70;;;;;;;17.57;63.39;99303.06;20836228;28;20049;-60
2023/12/12 22:24:23;;;;;;;3.78;2.22;;;;;;;17.59;63.54;99314.47;20812152;28;20048;-60
2023/12/12 22:34:25;;;;;;;2.00;1.80;;;;;;;17.58;63.67;99324.41;20802903;28;20052;-60
2023/12/12 22:44:27;;;;;;;2.78;1.95;;;;;;;17.61;63.44;99323.22;20826321;28;20584;-60
2023/12/12 22:54:28;;;;;;;2.03;1.83;;;;;;;17.63;63.49;99332.81;20813732;28;20049;-60
2023/12/12 23:04:34;;;;;;;2.38;1.77;;;;;;;17.66;63.31;99304.69;20839979;28;20049;-60
2023/12/12 23:14:36;;;;;;;3.28;2.20;;;;;;;17.89;62.64;99314.72;20854053;28;20142;-60
2023/12/12 23:24:40;;;;;;;2.95;1.65;;;;;;;17.95;62.52;99296.03;20843411;28;20132;-60
2023/12/12 23:34:46;;;;;;;2.05;1.50;;;;;;;18.02;62.19;99292.66;20826312;28;20188;-60
2023/12/12 23:44:48;;;;;;;1.88;1.60;;;;;;;18.06;62.08;99286.72;20757945;28;20049;-60
2023/12/12 23:54:50;;;;;;;1.52;1.40;;;;;;;18.06;62.04;99267.88;20817791;28;20056;-60
